Time;durP1;ratioP1;P1;durP2;ratioP2;P2;SDS_P1;SDS_P2;PMS_P1;PMS_P2;Temp;Humidity;BMP_temperature;BMP_pressure;BME280_temperature;BME280_humidity;BME280_pressure;Samples;Min_cycle;Max_cycle;Signal;HPM_P1;HPM_P2
2023/05/23 00:01:39;;;;;;;5.22;4.85;;;;;;;;;;10493470;28;20305;-80
2023/05/23 00:06:45;;;;;;;5.18;4.85;;;;;;;;;;10466778;28;20636;-82
2023/05/23 00:11:46;;;;;;;4.82;4.60;;;;;;;;;;10499151;28;20225;-79
2023/05/23 00:16:48;;;;;;;5.22;4.82;;;;;;;;;;10469552;28;20225;-80
2023/05/23 00:21:50;;;;;;;5.45;5.05;;;;;;;;;;10487575;28;20589;-79
2023/05/23 00:26:51;;;;;;;5.35;4.93;;;;;;;;;;10466683;28;20696;-82
2023/05/23 00:31:52;;;;;;;4.82;4.43;;;;;;;;;;10476335;28;20225;-81
2023/05/23 00:36:53;;;;;;;4.82;4.43;;;;;;;;;;10475200;28;20218;-79
2023/05/23 00:41:55;;;;;;;5.55;5.15;;;;;;;;;;10478946;28;20218;-81
2023/05/23 00:46:57;;;;;;;5.78;5.28;;;;;;;;;;10462661;28;20701;-83
2023/05/23 00:51:59;;;;;;;4.80;4.43;;;;;;;;;;10478451;28;20246;-81
2023/05/23 00:57:00;;;;;;;4.93;4.63;;;;;;;;;;10477718;28;20245;-82
2023/05/23 01:02:01;;;;;;;5.57;4.88;;;;;;;;;;10494272;28;20264;-80
2023/05/23 01:07:02;;;;;;;4.60;4.40;;;;;;;;;;10494152;28;20213;-80
2023/05/23 01:12:03;;;;;;;4.90;4.70;;;;;;;;;;10479086;28;20217;-83
2023/05/23 01:17:11;;;;;;;5.47;5.18;;;;;;;;;;10481240;28;20523;-79
2023/05/23 01:22:17;;;;;;;5.75;5.35;;;;;;;;;;10486371;28;20696;-79
2023/05/23 01:27:41;;;;;;;4.80;4.45;;;;;;;;;;10459662;28;20719;-79
2023/05/23 01:32:44;;;;;;;5.35;5.05;;;;;;;;;;10459455;28;20588;-80
2023/05/23 01:37:45;;;;;;;5.20;4.90;;;;;;;;;;10476337;28;20218;-79
2023/05/23 01:42:46;;;;;;;5.50;4.88;;;;;;;;;;10469571;28;20221;-80
2023/05/23 01:47:49;;;;;;;5.53;5.13;;;;;;;;;;10458537;28;20284;-80
2023/05/23 01:52:51;;;;;;;5.82;5.40;;;;;;;;;;10486781;28;20733;-79
2023/05/23 01:57:54;;;;;;;6.45;5.82;;;;;;;;;;10475195;28;20213;-80
2023/05/23 02:02:55;;;;;;;10.68;5.82;;;;;;;;;;10469765;28;20222;-80
2023/05/23 02:07:56;;;;;;;13.65;5.70;;;;;;;;;;10459907;28;20210;-81
2023/05/23 02:12:57;;;;;;;5.68;5.22;;;;;;;;;;10489017;28;21439;-81
2023/05/23 02:18:00;;;;;;;6.18;5.68;;;;;;;;;;10449445;28;20218;-81
2023/05/23 02:23:02;;;;;;;5.75;5.20;;;;;;;;;;10467201;28;20272;-81
2023/05/23 02:28:04;;;;;;;6.57;6.13;;;;;;;;;;10450553;28;20443;-80
2023/05/23 02:33:05;;;;;;;6.18;5.78;;;;;;;;;;10463782;28;20210;-80
2023/05/23 02:38:06;;;;;;;5.90;5.47;;;;;;;;;;10463010;28;20226;-82
2023/05/23 02:43:07;;;;;;;6.00;5.60;;;;;;;;;;10486618;28;20241;-80
2023/05/23 02:48:10;;;;;;;6.50;5.90;;;;;;;;;;10468378;28;21055;-80
2023/05/23 02:53:11;;;;;;;7.93;6.22;;;;;;;;;;10467502;28;20902;-80
2023/05/23 02:58:13;;;;;;;7.50;5.90;;;;;;;;;;10466748;28;20227;-80
2023/05/23 03:03:15;;;;;;;5.97;5.47;;;;;;;;;;10465495;28;20653;-80
2023/05/23 03:08:16;;;;;;;6.75;6.05;;;;;;;;;;10467850;28;20217;-80
2023/05/23 03:13:17;;;;;;;6.22;5.72;;;;;;;;;;10485011;28;20210;-79
2023/05/23 03:18:19;;;;;;;7.25;6.65;;;;;;;;;;10457568;28;20266;-80
2023/05/23 03:23:20;;;;;;;8.52;7.25;;;;;;;;;;10466372;28;20217;-80
2023/05/23 03:28:21;;;;;;;8.63;7.78;;;;;;;;;;10449219;28;20224;-82
2023/05/23 03:33:22;;;;;;;10.45;7.38;;;;;;;;;;10454080;28;20215;-82
2023/05/23 03:38:23;;;;;;;8.55;7.75;;;;;;;;;;10453947;28;20232;-82
2023/05/23 03:43:24;;;;;;;7.40;6.72;;;;;;;;;;10464073;28;20236;-80
2023/05/23 03:48:26;;;;;;;7.55;6.88;;;;;;;;;;10455405;28;20222;-79
2023/05/23 03:53:27;;;;;;;8.50;7.75;;;;;;;;;;10469816;28;20218;-80
2023/05/23 03:58:29;;;;;;;8.90;7.97;;;;;;;;;;10466610;28;20222;-80
2023/05/23 04:03:35;;;;;;;8.45;7.43;;;;;;;;;;10467440;28;20223;-80
2023/05/23 04:08:40;;;;;;;8.00;7.15;;;;;;;;;;10461031;28;20317;-82
2023/05/23 04:13:42;;;;;;;8.27;7.53;;;;;;;;;;10474100;28;20220;-79
2023/05/23 04:18:46;;;;;;;10.80;9.35;;;;;;;;;;10474588;28;20256;-83
2023/05/23 04:23:47;;;;;;;17.33;9.93;;;;;;;;;;10462534;28;20382;-82
2023/05/23 04:28:49;;;;;;;12.05;9.70;;;;;;;;;;10464294;28;20222;-80
2023/05/23 04:33:51;;;;;;;14.38;10.55;;;;;;;;;;10454487;28;20294;-79
2023/05/23 04:38:53;;;;;;;12.82;10.13;;;;;;;;;;10459371;28;21155;-80
2023/05/23 04:43:56;;;;;;;13.27;10.25;;;;;;;;;;10456420;28;20214;-79
2023/05/23 04:49:13;;;;;;;15.25;10.35;;;;;;;;;;10456689;28;20213;-79
2023/05/23 04:54:14;;;;;;;15.52;10.85;;;;;;;;;;10464412;28;20225;-80
2023/05/23 04:59:15;;;;;;;16.40;11.75;;;;;;;;;;10457385;28;20329;-80
2023/05/23 05:04:17;;;;;;;15.45;11.57;;;;;;;;;;10451962;28;20267;-80
2023/05/23 05:09:20;;;;;;;20.05;13.23;;;;;;;;;;10453048;28;20924;-81
2023/05/23 05:14:23;;;;;;;16.02;12.05;;;;;;;;;;10432105;28;20218;-82
2023/05/23 05:19:24;;;;;;;28.50;16.95;;;;;;;;;;10435537;28;20277;-79
2023/05/23 05:24:26;;;;;;;26.55;15.40;;;;;;;;;;10437215;28;20718;-83
2023/05/23 05:29:27;;;;;;;23.98;13.75;;;;;;;;;;10453517;28;20209;-83
2023/05/23 05:34:28;;;;;;;16.77;11.05;;;;;;;;;;10457840;28;20218;-80
2023/05/23 05:39:30;;;;;;;10.35;7.78;;;;;;;;;;10438084;28;20221;-80
2023/05/23 05:44:32;;;;;;;8.27;7.05;;;;;;;;;;10450664;28;20303;-79
2023/05/23 05:49:33;;;;;;;13.50;6.63;;;;;;;;;;10460274;28;20682;-81
2023/05/23 05:54:34;;;;;;;8.30;5.80;;;;;;;;;;10453838;28;20210;-79
2023/05/23 05:59:35;;;;;;;7.60;6.75;;;;;;;;;;10489490;28;20308;-78
2023/05/23 06:04:37;;;;;;;7.95;6.07;;;;;;;;;;10474207;28;20222;-84
2023/05/23 06:09:38;;;;;;;8.25;6.03;;;;;;;;;;10448071;28;20226;-84
2023/05/23 06:14:39;;;;;;;9.18;6.47;;;;;;;;;;10443935;28;20268;-78
2023/05/23 06:19:40;;;;;;;8.18;5.95;;;;;;;;;;10455630;28;20225;-83
2023/05/23 06:24:43;;;;;;;6.97;6.28;;;;;;;;;;10458117;28;20271;-85
2023/05/23 06:29:44;;;;;;;7.68;6.40;;;;;;;;;;10479175;28;20214;-84
2023/05/23 06:34:45;;;;;;;9.82;5.50;;;;;;;;;;10460965;28;20329;-83
2023/05/23 06:39:47;;;;;;;5.32;4.97;;;;;;;;;;10467701;28;20939;-82
2023/05/23 06:44:47;;;;;;;4.97;4.70;;;;;;;;;;10468769;28;20217;-82
2023/05/23 06:49:48;;;;;;;5.60;4.57;;;;;;;;;;10463985;28;20249;-85
2023/05/23 06:54:50;;;;;;;5.03;4.63;;;;;;;;;;10438480;28;20252;-83
2023/05/23 06:59:52;;;;;;;4.68;4.38;;;;;;;;;;10476384;28;20218;-78
2023/05/23 07:04:54;;;;;;;5.68;5.13;;;;;;;;;;10474622;28;20232;-82
2023/05/23 07:10:15;;;;;;;5.85;5.25;;;;;;;;;;10479365;28;20218;-82
2023/05/23 07:15:17;;;;;;;6.63;5.05;;;;;;;;;;10464157;28;20773;-83
2023/05/23 07:20:36;;;;;;;5.30;4.80;;;;;;;;;;10460827;28;20224;-81
2023/05/23 07:25:46;;;;;;;6.05;5.40;;;;;;;;;;10458857;28;20309;-80
2023/05/23 07:30:57;;;;;;;6.60;6.00;;;;;;;;;;10441822;28;20210;-83
2023/05/23 07:35:58;;;;;;;5.80;5.22;;;;;;;;;;10458908;28;20233;-82
2023/05/23 07:40:59;;;;;;;7.75;6.20;;;;;;;;;;10454809;28;20314;-85
2023/05/23 07:46:00;;;;;;;7.85;5.53;;;;;;;;;;10439104;28;20222;-87
2023/05/23 07:51:01;;;;;;;5.72;5.25;;;;;;;;;;10478243;28;20217;-81
2023/05/23 07:56:03;;;;;;;5.65;5.25;;;;;;;;;;10460234;28;20235;-84
2023/05/23 08:01:09;;;;;;;5.22;4.93;;;;;;;;;;10458624;28;20340;-81
2023/05/23 08:06:28;;;;;;;4.78;4.45;;;;;;;;;;10459812;28;20214;-84
2023/05/23 08:11:33;;;;;;;5.10;4.68;;;;;;;;;;10463304;28;20221;-83
2023/05/23 08:16:36;;;;;;;2.92;2.83;;;;;;;;;;10450153;28;20288;-84
2023/05/23 08:21:40;;;;;;;2.53;2.42;;;;;;;;;;10488380;28;20213;-82
2023/05/23 08:26:41;;;;;;;3.50;3.17;;;;;;;;;;10465778;28;20229;-84
2023/05/23 08:31:45;;;;;;;4.00;3.63;;;;;;;;;;10465867;28;20222;-81
2023/05/23 08:36:51;;;;;;;4.13;3.92;;;;;;;;;;10448139;28;20914;-82
2023/05/23 08:41:55;;;;;;;4.50;4.20;;;;;;;;;;10462062;28;20225;-82
2023/05/23 08:46:58;;;;;;;4.85;4.45;;;;;;;;;;10467079;28;20233;-82
2023/05/23 08:52:17;;;;;;;5.93;3.97;;;;;;;;;;10459774;28;20279;-86
2023/05/23 08:57:21;;;;;;;2.30;2.20;;;;;;;;;;10468513;28;20218;-78
2023/05/23 09:02:28;;;;;;;2.88;2.67;;;;;;;;;;10460048;28;20218;-79
2023/05/23 09:07:39;;;;;;;2.63;2.45;;;;;;;;;;10458931;28;20206;-84
2023/05/23 09:12:40;;;;;;;2.63;2.53;;;;;;;;;;10483057;28;20225;-81
2023/05/23 09:17:41;;;;;;;2.60;2.45;;;;;;;;;;10472484;28;20210;-79
2023/05/23 09:22:48;;;;;;;3.20;2.45;;;;;;;;;;10454362;28;20218;-80
2023/05/23 09:27:53;;;;;;;1.80;1.80;;;;;;;;;;10463412;28;20218;-80
2023/05/23 09:32:58;;;;;;;2.10;2.10;;;;;;;;;;10453286;28;20222;-79
2023/05/23 09:37:59;;;;;;;2.50;2.40;;;;;;;;;;10462604;28;20222;-81
2023/05/23 09:43:06;;;;;;;2.75;2.63;;;;;;;;;;10459135;28;20283;-80
2023/05/23 09:48:12;;;;;;;2.58;2.45;;;;;;;;;;10448564;28;20910;-81
2023/05/23 09:53:13;;;;;;;3.33;2.88;;;;;;;;;;10458193;28;20246;-81
2023/05/23 09:58:16;;;;;;;3.08;2.88;;;;;;;;;;10447600;28;20243;-80
2023/05/23 10:03:17;;;;;;;3.53;3.33;;;;;;;;;;10456833;28;20763;-82
2023/05/23 10:08:21;;;;;;;3.33;3.17;;;;;;;;;;10463885;28;20763;-80
2023/05/23 10:13:26;;;;;;;3.40;3.20;;;;;;;;;;10456958;28;20267;-79
2023/05/23 10:18:29;;;;;;;2.95;2.75;;;;;;;;;;10459349;28;22517;-81
2023/05/23 10:23:30;;;;;;;1.95;1.95;;;;;;;;;;10468162;28;20349;-81
2023/05/23 10:28:32;;;;;;;2.15;2.08;;;;;;;;;;10480364;28;20228;-85
2023/05/23 10:33:35;;;;;;;2.17;2.08;;;;;;;;;;10513607;28;20277;-81
2023/05/23 10:38:58;;;;;;;2.35;2.25;;;;;;;;;;10475255;28;20350;-83
2023/05/23 10:44:02;;;;;;;2.15;2.15;;;;;;;;;;10486135;28;20312;-83
2023/05/23 10:49:10;;;;;;;2.10;2.00;;;;;;;;;;10471192;28;20298;-82
2023/05/23 10:54:11;;;;;;;1.65;1.65;;;;;;;;;;10453182;28;20775;-80
2023/05/23 10:59:21;;;;;;;1.83;1.83;;;;;;;;;;10469883;28;20221;-80
2023/05/23 11:04:26;;;;;;;2.60;2.50;;;;;;;;;;10443633;28;20230;-81
2023/05/23 11:09:27;;;;;;;2.53;2.42;;;;;;;;;;10477964;28;20305;-81
2023/05/23 11:14:52;;;;;;;2.35;2.30;;;;;;;;;;10465739;28;20210;-82
2023/05/23 11:20:07;;;;;;;3.00;2.67;;;;;;;;;;10469047;28;20269;-82
2023/05/23 11:25:09;;;;;;;4.47;4.20;;;;;;;;;;10482176;28;20275;-81
2023/05/23 11:30:14;;;;;;;6.40;5.68;;;;;;;;;;10483644;28;20206;-83
2023/05/23 11:35:15;;;;;;;5.15;4.50;;;;;;;;;;10459133;28;21183;-80
2023/05/23 11:40:33;;;;;;;4.90;4.53;;;;;;;;;;10457048;28;20218;-82
2023/05/23 11:45:35;;;;;;;4.40;4.05;;;;;;;;;;10461497;28;20238;-81
2023/05/23 11:50:45;;;;;;;3.85;3.65;;;;;;;;;;10440155;28;20230;-81
2023/05/23 11:55:53;;;;;;;3.42;3.22;;;;;;;;;;10472707;28;20209;-80
2023/05/23 12:01:02;;;;;;;2.67;2.58;;;;;;;;;;10462022;28;20576;-82
2023/05/23 12:06:03;;;;;;;3.85;3.17;;;;;;;;;;10471591;28;20322;-81
2023/05/23 12:11:05;;;;;;;2.97;2.78;;;;;;;;;;10467556;28;20225;-80
2023/05/23 12:16:06;;;;;;;2.50;2.40;;;;;;;;;;10462743;28;20442;-81
2023/05/23 12:21:07;;;;;;;2.60;2.60;;;;;;;;;;10453792;28;20214;-80
2023/05/23 12:26:12;;;;;;;3.72;2.75;;;;;;;;;;10457685;28;20240;-80
2023/05/23 12:31:17;;;;;;;2.72;2.63;;;;;;;;;;10446760;28;20220;-80
2023/05/23 12:36:21;;;;;;;2.03;1.92;;;;;;;;;;10443565;28;20256;-82
2023/05/23 12:41:22;;;;;;;1.60;1.55;;;;;;;;;;10478481;28;20662;-80
2023/05/23 12:46:24;;;;;;;0.50;0.50;;;;;;;;;;10479464;28;20229;-80
2023/05/23 12:51:25;;;;;;;0.77;0.77;;;;;;;;;;10467743;28;20221;-79
2023/05/23 12:56:26;;;;;;;0.68;0.68;;;;;;;;;;10466300;28;20222;-80
2023/05/23 13:01:27;;;;;;;0.70;0.70;;;;;;;;;;10481577;28;20696;-81
2023/05/23 13:06:28;;;;;;;0.60;0.60;;;;;;;;;;10445231;28;20226;-80
2023/05/23 13:11:30;;;;;;;0.80;0.80;;;;;;;;;;10479404;28;20225;-80
2023/05/23 13:16:31;;;;;;;0.77;0.77;;;;;;;;;;10459544;28;20730;-81
2023/05/23 13:21:32;;;;;;;1.00;1.00;;;;;;;;;;10461095;28;20209;-80
2023/05/23 13:26:34;;;;;;;1.13;1.13;;;;;;;;;;10474351;28;20214;-78
2023/05/23 13:31:35;;;;;;;1.17;1.08;;;;;;;;;;10462760;28;20217;-82
2023/05/23 13:36:36;;;;;;;5.00;1.67;;;;;;;;;;10477944;28;20986;-81
2023/05/23 13:41:37;;;;;;;1.67;1.55;;;;;;;;;;10450886;28;20224;-82
2023/05/23 13:46:38;;;;;;;1.90;1.83;;;;;;;;;;10457569;28;20213;-83
2023/05/23 13:51:40;;;;;;;5.72;2.20;;;;;;;;;;10473662;28;20676;-82
2023/05/23 13:56:42;;;;;;;3.10;2.80;;;;;;;;;;10461719;28;20248;-82
2023/05/23 14:01:43;;;;;;;4.20;2.67;;;;;;;;;;10462519;28;20220;-80
2023/05/23 14:06:44;;;;;;;6.75;3.00;;;;;;;;;;10482446;28;20237;-84
2023/05/23 14:11:45;;;;;;;9.07;3.10;;;;;;;;;;10453474;28;23175;-81
2023/05/23 14:16:46;;;;;;;6.47;2.97;;;;;;;;;;10437171;28;21261;-80
2023/05/23 14:21:47;;;;;;;3.00;2.80;;;;;;;;;;10455554;28;20224;-82
2023/05/23 14:26:48;;;;;;;5.80;4.40;;;;;;;;;;10436417;28;20250;-82
2023/05/23 14:31:49;;;;;;;4.82;3.97;;;;;;;;;;10469683;28;20218;-79
2023/05/23 14:36:50;;;;;;;8.95;4.53;;;;;;;;;;10456631;28;20897;-80
2023/05/23 14:41:51;;;;;;;3.75;3.25;;;;;;;;;;10434522;28;20769;-81
2023/05/23 14:46:53;;;;;;;3.72;2.20;;;;;;;;;;10457178;28;21232;-84
2023/05/23 14:51:54;;;;;;;3.30;2.47;;;;;;;;;;10446544;28;20216;-82
2023/05/23 14:56:55;;;;;;;5.95;3.42;;;;;;;;;;10453378;28;20666;-81
2023/05/23 15:01:57;;;;;;;6.68;2.85;;;;;;;;;;10464953;28;20324;-84
2023/05/23 15:06:58;;;;;;;4.78;3.05;;;;;;;;;;10491449;28;20214;-81
2023/05/23 15:11:59;;;;;;;8.80;3.20;;;;;;;;;;10467625;28;20275;-81
2023/05/23 15:17:06;;;;;;;3.00;2.80;;;;;;;;;;10489583;28;20259;-80
2023/05/23 15:22:08;;;;;;;5.10;2.47;;;;;;;;;;10490047;28;20279;-83
2023/05/23 15:27:09;;;;;;;6.72;2.60;;;;;;;;;;10450211;28;20225;-79
2023/05/23 15:32:10;;;;;;;4.05;1.80;;;;;;;;;;10448983;28;20209;-81
2023/05/23 15:37:11;;;;;;;3.83;1.92;;;;;;;;;;10462330;28;20538;-81
2023/05/23 15:42:12;;;;;;;4.07;2.10;;;;;;;;;;10462908;28;20233;-78
2023/05/23 15:47:13;;;;;;;3.00;2.15;;;;;;;;;;10486948;28;20245;-80
2023/05/23 15:52:14;;;;;;;4.28;2.10;;;;;;;;;;10485513;28;20315;-81
2023/05/23 15:57:15;;;;;;;5.18;1.92;;;;;;;;;;10480899;28;20296;-81
2023/05/23 16:02:17;;;;;;;4.63;1.75;;;;;;;;;;10463306;28;20222;-77
2023/05/23 16:07:18;;;;;;;4.80;1.60;;;;;;;;;;10431819;28;20275;-79
2023/05/23 16:12:19;;;;;;;6.30;1.83;;;;;;;;;;10430953;28;20707;-83
2023/05/23 16:17:21;;;;;;;8.73;1.63;;;;;;;;;;10476002;28;20218;-81
2023/05/23 16:22:22;;;;;;;6.57;1.88;;;;;;;;;;10461029;28;20222;-80
2023/05/23 16:27:23;;;;;;;4.82;1.80;;;;;;;;;;10479390;28;20218;-83
2023/05/23 16:32:24;;;;;;;6.00;1.63;;;;;;;;;;10475074;28;20728;-81
2023/05/23 16:37:26;;;;;;;6.97;1.80;;;;;;;;;;10483283;28;20206;-82
2023/05/23 16:42:27;;;;;;;3.92;1.48;;;;;;;;;;10489506;28;20224;-85
2023/05/23 16:47:28;;;;;;;7.45;1.98;;;;;;;;;;10465267;28;20737;-82
2023/05/23 16:52:29;;;;;;;10.65;2.08;;;;;;;;;;10471768;28;20241;-83
2023/05/23 16:57:30;;;;;;;7.90;2.10;;;;;;;;;;10484816;28;20217;-82
2023/05/23 17:02:31;;;;;;;3.80;1.65;;;;;;;;;;10451841;28;20314;-83
2023/05/23 17:07:32;;;;;;;6.15;1.83;;;;;;;;;;10462713;28;20218;-81
2023/05/23 17:12:33;;;;;;;4.80;1.77;;;;;;;;;;10463815;28;20214;-81
2023/05/23 17:17:34;;;;;;;5.00;1.50;;;;;;;;;;10473546;28;20246;-80
2023/05/23 17:22:36;;;;;;;4.20;2.10;;;;;;;;;;10460348;28;20646;-79
2023/05/23 17:33:55;;;;;;;6.43;1.98;;;;;;;;;;10465846;28;20290;-79
2023/05/23 17:38:56;;;;;;;4.63;1.48;;;;;;;;;;10435909;28;20311;-77
2023/05/23 17:43:57;;;;;;;2.30;1.45;;;;;;;;;;10454692;28;20213;-78
2023/05/23 17:48:58;;;;;;;4.63;1.30;;;;;;;;;;10464899;28;20222;-77
2023/05/23 17:53:59;;;;;;;4.88;1.73;;;;;;;;;;10463935;28;20341;-79
2023/05/23 17:59:06;;;;;;;6.47;1.48;;;;;;;;;;10476491;28;20213;-79
2023/05/23 18:04:08;;;;;;;6.82;2.00;;;;;;;;;;10455398;28;20279;-80
2023/05/23 18:09:08;;;;;;;3.83;1.40;;;;;;;;;;10483566;28;20221;-81
2023/05/23 18:14:10;;;;;;;8.55;1.67;;;;;;;;;;10450380;28;20231;-79
2023/05/23 18:19:11;;;;;;;8.32;2.67;;;;;;;;;;10451411;28;20617;-80
2023/05/23 18:24:12;;;;;;;2.78;1.10;;;;;;;;;;10436808;28;20225;-80
2023/05/23 18:29:13;;;;;;;4.70;1.00;;;;;;;;;;10448599;28;20233;-79
2023/05/23 18:34:15;;;;;;;5.47;1.63;;;;;;;;;;10453841;28;20209;-82
2023/05/23 18:39:20;;;;;;;4.05;1.33;;;;;;;;;;10452014;28;20313;-83
2023/05/23 18:44:22;;;;;;;6.15;1.77;;;;;;;;;;10421672;28;20214;-80
2023/05/23 18:49:23;;;;;;;5.63;1.33;;;;;;;;;;10442042;28;20214;-81
2023/05/23 18:54:24;;;;;;;3.97;1.48;;;;;;;;;;10464501;28;20795;-82
2023/05/23 18:59:25;;;;;;;3.25;1.17;;;;;;;;;;10456032;28;20222;-81
2023/05/23 19:04:26;;;;;;;3.15;1.13;;;;;;;;;;10442310;28;20209;-81
2023/05/23 19:09:28;;;;;;;2.67;1.42;;;;;;;;;;10447951;28;20218;-82
2023/05/23 19:14:29;;;;;;;1.35;1.15;;;;;;;;;;10447690;28;20213;-83
2023/05/23 19:19:30;;;;;;;3.63;1.02;;;;;;;;;;10471112;28;20706;-80
2023/05/23 19:24:32;;;;;;;2.05;1.13;;;;;;;;;;10446539;28;20343;-84
2023/05/23 19:29:33;;;;;;;5.50;1.42;;;;;;;;;;10451514;28;20593;-81
2023/05/23 19:34:35;;;;;;;2.13;1.08;;;;;;;;;;10466300;28;20896;-81
2023/05/23 19:39:36;;;;;;;6.65;1.77;;;;;;;;;;10464769;28;20420;-82
2023/05/23 19:44:37;;;;;;;3.25;0.88;;;;;;;;;;10459257;28;20205;-82
2023/05/23 19:49:38;;;;;;;3.67;1.30;;;;;;;;;;10445944;28;20359;-82
2023/05/23 19:54:39;;;;;;;1.85;0.80;;;;;;;;;;10449242;28;20233;-83
2023/05/23 19:59:41;;;;;;;5.88;0.95;;;;;;;;;;10431028;28;20263;-81
2023/05/23 20:04:42;;;;;;;5.88;1.60;;;;;;;;;;10444950;28;20213;-83
2023/05/23 20:09:43;;;;;;;4.63;1.15;;;;;;;;;;10447670;28;20264;-83
2023/05/23 20:14:44;;;;;;;9.10;1.65;;;;;;;;;;10479061;28;20210;-82
2023/05/23 20:19:45;;;;;;;1.38;0.90;;;;;;;;;;10445625;28;20218;-81
2023/05/23 20:24:46;;;;;;;5.60;1.42;;;;;;;;;;10468917;28;20210;-80
2023/05/23 20:29:47;;;;;;;4.93;1.23;;;;;;;;;;10488383;28;20210;-81
2023/05/23 20:34:48;;;;;;;3.78;0.90;;;;;;;;;;10497997;28;20201;-82
2023/05/23 20:39:51;;;;;;;4.00;0.90;;;;;;;;;;10487653;28;20248;-81
2023/05/23 20:44:53;;;;;;;7.82;1.58;;;;;;;;;;10527254;28;20218;-85
2023/05/23 20:49:54;;;;;;;1.85;0.77;;;;;;;;;;10502262;28;20222;-85
2023/05/23 20:54:55;;;;;;;5.60;1.30;;;;;;;;;;10487598;28;20214;-83
2023/05/23 20:59:57;;;;;;;2.63;1.40;;;;;;;;;;10465915;28;20247;-81
2023/05/23 21:04:58;;;;;;;7.07;1.58;;;;;;;;;;10468891;28;20718;-81
2023/05/23 21:09:59;;;;;;;6.80;1.30;;;;;;;;;;10484205;28;20224;-81
2023/05/23 21:15:00;;;;;;;6.50;1.23;;;;;;;;;;10482745;28;20209;-81
2023/05/23 21:20:01;;;;;;;4.93;0.93;;;;;;;;;;10477288;28;20222;-81
2023/05/23 21:25:03;;;;;;;6.43;1.27;;;;;;;;;;10460274;28;20178;-81
2023/05/23 21:30:05;;;;;;;2.58;1.33;;;;;;;;;;10466177;28;20471;-81
2023/05/23 21:35:07;;;;;;;9.85;1.05;;;;;;;;;;10463809;28;20179;-81
2023/05/23 21:40:08;;;;;;;5.05;0.80;;;;;;;;;;10469429;28;20271;-81
2023/05/23 21:45:10;;;;;;;4.13;1.00;;;;;;;;;;10460832;28;20692;-81
2023/05/23 21:50:11;;;;;;;6.57;1.17;;;;;;;;;;10476727;28;20264;-80
2023/05/23 21:55:12;;;;;;;4.03;0.80;;;;;;;;;;10453206;28;20208;-82
2023/05/23 22:00:14;;;;;;;5.88;1.30;;;;;;;;;;10457881;28;20214;-81
2023/05/23 22:05:15;;;;;;;4.13;0.73;;;;;;;;;;10456297;28;20190;-81
2023/05/23 22:10:16;;;;;;;4.05;0.70;;;;;;;;;;10474252;28;20699;-81
2023/05/23 22:15:17;;;;;;;3.75;0.82;;;;;;;;;;10459858;28;21527;-81
2023/05/23 22:20:19;;;;;;;3.70;1.13;;;;;;;;;;10463532;28;20289;-81
2023/05/23 22:25:21;;;;;;;2.08;0.77;;;;;;;;;;10458683;28;20870;-80
2023/05/23 22:30:25;;;;;;;3.17;0.98;;;;;;;;;;10476277;28;20666;-80
2023/05/23 22:35:26;;;;;;;6.05;1.08;;;;;;;;;;10462679;28;20214;-82
2023/05/23 22:40:27;;;;;;;5.20;1.13;;;;;;;;;;10452775;28;20225;-83
2023/05/23 22:45:28;;;;;;;6.45;1.30;;;;;;;;;;10456784;28;20213;-80
2023/05/23 22:50:32;;;;;;;7.03;0.77;;;;;;;;;;10452143;28;20226;-84
2023/05/23 22:55:34;;;;;;;7.40;1.20;;;;;;;;;;10470611;28;20301;-81
2023/05/23 23:00:35;;;;;;;1.85;1.00;;;;;;;;;;10449852;28;20225;-82
2023/05/23 23:05:36;;;;;;;3.88;0.80;;;;;;;;;;10478200;28;21048;-85
2023/05/23 23:10:40;;;;;;;3.17;0.70;;;;;;;;;;10457828;28;20213;-78
2023/05/23 23:15:51;;;;;;;2.88;0.95;;;;;;;;;;10456421;28;20214;-81
2023/05/23 23:20:53;;;;;;;2.42;1.00;;;;;;;;;;10455394;28;20218;-81
2023/05/23 23:25:54;;;;;;;2.60;0.98;;;;;;;;;;10479357;28;20224;-80
2023/05/23 23:30:55;;;;;;;5.70;0.60;;;;;;;;;;10438108;28;20272;-81
2023/05/23 23:35:57;;;;;;;4.68;0.80;;;;;;;;;;10458010;28;20238;-82
2023/05/23 23:40:58;;;;;;;2.70;0.85;;;;;;;;;;10445296;28;20217;-82
2023/05/23 23:45:59;;;;;;;3.70;0.75;;;;;;;;;;10475797;28;20217;-80
2023/05/23 23:51:00;;;;;;;5.15;1.00;;;;;;;;;;10460462;28;20221;-80
2023/05/23 23:56:01;;;;;;;1.27;0.80;;;;;;;;;;10459678;28;20687;-80
